sensor_id;sensor_type;location;lat;lon;timestamp;P1;durP1;ratioP1;P2;durP2;ratioP2
16029;SDS011;34770;49.272;11.070;2023-07-20T00:02:09;9.90;;;4.32;;
16029;SDS011;34770;49.272;11.070;2023-07-20T00:04:34;7.25;;;4.68;;
16029;SDS011;34770;49.272;11.070;2023-07-20T00:07:00;7.43;;;4.60;;
16029;SDS011;34770;49.272;11.070;2023-07-20T00:09:28;9.38;;;4.82;;
16029;SDS011;34770;49.272;11.070;2023-07-20T00:11:53;6.72;;;4.82;;
16029;SDS011;34770;49.272;11.070;2023-07-20T00:14:19;5.78;;;4.72;;
16029;SDS011;34770;49.272;11.070;2023-07-20T00:16:45;8.65;;;4.40;;
16029;SDS011;34770;49.272;11.070;2023-07-20T00:19:12;6.57;;;4.22;;
16029;SDS011;34770;49.272;11.070;2023-07-20T00:21:37;9.48;;;4.43;;
16029;SDS011;34770;49.272;11.070;2023-07-20T00:24:06;6.15;;;4.85;;
16029;SDS011;34770;49.272;11.070;2023-07-20T00:26:31;8.30;;;4.32;;
16029;SDS011;34770;49.272;11.070;2023-07-20T00:28:57;8.50;;;5.05;;
16029;SDS011;34770;49.272;11.070;2023-07-20T00:31:22;7.03;;;4.35;;
16029;SDS011;34770;49.272;11.070;2023-07-20T00:33:47;7.25;;;4.97;;
16029;SDS011;34770;49.272;11.070;2023-07-20T00:36:13;9.18;;;4.82;;
16029;SDS011;34770;49.272;11.070;2023-07-20T00:38:38;6.00;;;4.35;;
16029;SDS011;34770;49.272;11.070;2023-07-20T00:41:04;6.20;;;4.70;;
16029;SDS011;34770;49.272;11.070;2023-07-20T00:43:29;7.35;;;4.68;;
16029;SDS011;34770;49.272;11.070;2023-07-20T00:45:55;9.45;;;4.82;;
16029;SDS011;34770;49.272;11.070;2023-07-20T00:48:20;4.85;;;4.40;;
16029;SDS011;34770;49.272;11.070;2023-07-20T00:50:46;7.38;;;4.15;;
16029;SDS011;34770;49.272;11.070;2023-07-20T00:53:13;4.82;;;4.32;;
16029;SDS011;34770;49.272;11.070;2023-07-20T00:55:39;5.43;;;4.30;;
16029;SDS011;34770;49.272;11.070;2023-07-20T00:58:04;6.95;;;4.28;;
16029;SDS011;34770;49.272;11.070;2023-07-20T01:00:30;6.07;;;4.18;;
16029;SDS011;34770;49.272;11.070;2023-07-20T01:02:58;4.68;;;4.05;;
16029;SDS011;34770;49.272;11.070;2023-07-20T01:05:24;6.93;;;4.53;;
16029;SDS011;34770;49.272;11.070;2023-07-20T01:11:28;7.93;;;4.85;;
16029;SDS011;34770;49.272;11.070;2023-07-20T01:14:01;7.00;;;4.55;;
16029;SDS011;34770;49.272;11.070;2023-07-20T01:16:27;9.77;;;5.18;;
16029;SDS011;34770;49.272;11.070;2023-07-20T01:18:53;6.05;;;4.75;;
16029;SDS011;34770;49.272;11.070;2023-07-20T01:21:21;8.32;;;5.60;;
16029;SDS011;34770;49.272;11.070;2023-07-20T01:26:41;7.38;;;4.88;;
16029;SDS011;34770;49.272;11.070;2023-07-20T01:32:40;8.70;;;4.28;;
16029;SDS011;34770;49.272;11.070;2023-07-20T01:35:08;5.82;;;4.25;;
16029;SDS011;34770;49.272;11.070;2023-07-20T01:37:39;6.93;;;4.55;;
16029;SDS011;34770;49.272;11.070;2023-07-20T01:40:11;7.22;;;4.63;;
16029;SDS011;34770;49.272;11.070;2023-07-20T01:42:42;5.25;;;4.65;;
16029;SDS011;34770;49.272;11.070;2023-07-20T01:45:10;5.28;;;4.22;;
16029;SDS011;34770;49.272;11.070;2023-07-20T01:47:35;6.50;;;4.45;;
16029;SDS011;34770;49.272;11.070;2023-07-20T01:50:00;7.47;;;3.95;;
16029;SDS011;34770;49.272;11.070;2023-07-20T01:52:26;7.03;;;4.88;;
16029;SDS011;34770;49.272;11.070;2023-07-20T01:54:51;6.70;;;4.40;;
16029;SDS011;34770;49.272;11.070;2023-07-20T01:57:16;6.25;;;4.03;;
16029;SDS011;34770;49.272;11.070;2023-07-20T01:59:42;4.65;;;4.10;;
16029;SDS011;34770;49.272;11.070;2023-07-20T02:02:07;5.93;;;4.78;;
16029;SDS011;34770;49.272;11.070;2023-07-20T02:04:33;7.28;;;4.47;;
16029;SDS011;34770;49.272;11.070;2023-07-20T02:06:58;6.55;;;4.30;;
16029;SDS011;34770;49.272;11.070;2023-07-20T02:09:23;8.13;;;4.00;;
16029;SDS011;34770;49.272;11.070;2023-07-20T02:11:49;4.40;;;3.65;;
16029;SDS011;34770;49.272;11.070;2023-07-20T02:14:15;5.40;;;4.03;;
16029;SDS011;34770;49.272;11.070;2023-07-20T02:16:40;8.57;;;3.90;;
16029;SDS011;34770;49.272;11.070;2023-07-20T02:19:05;5.07;;;4.47;;
16029;SDS011;34770;49.272;11.070;2023-07-20T02:21:32;7.80;;;4.35;;
16029;SDS011;34770;49.272;11.070;2023-07-20T02:23:57;6.35;;;4.03;;
16029;SDS011;34770;49.272;11.070;2023-07-20T02:26:23;7.28;;;3.92;;
16029;SDS011;34770;49.272;11.070;2023-07-20T02:28:48;6.43;;;4.70;;
16029;SDS011;34770;49.272;11.070;2023-07-20T02:31:14;6.85;;;4.95;;
16029;SDS011;34770;49.272;11.070;2023-07-20T02:33:39;6.30;;;4.60;;
16029;SDS011;34770;49.272;11.070;2023-07-20T02:36:04;6.43;;;4.20;;
16029;SDS011;34770;49.272;11.070;2023-07-20T02:38:30;5.72;;;4.22;;
16029;SDS011;34770;49.272;11.070;2023-07-20T02:40:55;6.68;;;4.15;;
16029;SDS011;34770;49.272;11.070;2023-07-20T02:43:20;7.10;;;4.45;;
16029;SDS011;34770;49.272;11.070;2023-07-20T02:45:46;6.00;;;5.10;;
16029;SDS011;34770;49.272;11.070;2023-07-20T02:48:12;5.70;;;4.32;;
16029;SDS011;34770;49.272;11.070;2023-07-20T02:50:37;5.88;;;4.20;;
16029;SDS011;34770;49.272;11.070;2023-07-20T02:53:02;5.20;;;4.30;;
16029;SDS011;34770;49.272;11.070;2023-07-20T02:55:28;6.38;;;4.28;;
16029;SDS011;34770;49.272;11.070;2023-07-20T02:57:53;5.20;;;4.03;;
16029;SDS011;34770;49.272;11.070;2023-07-20T03:00:18;6.70;;;4.82;;
16029;SDS011;34770;49.272;11.070;2023-07-20T03:02:44;4.53;;;3.50;;
16029;SDS011;34770;49.272;11.070;2023-07-20T03:05:12;7.20;;;4.13;;
16029;SDS011;34770;49.272;11.070;2023-07-20T03:07:41;7.82;;;3.95;;
16029;SDS011;34770;49.272;11.070;2023-07-20T03:10:08;4.20;;;3.78;;
16029;SDS011;34770;49.272;11.070;2023-07-20T03:12:34;6.95;;;4.15;;
16029;SDS011;34770;49.272;11.070;2023-07-20T03:15:01;5.85;;;4.35;;
16029;SDS011;34770;49.272;11.070;2023-07-20T03:17:27;6.30;;;4.75;;
16029;SDS011;34770;49.272;11.070;2023-07-20T03:19:52;5.07;;;4.05;;
16029;SDS011;34770;49.272;11.070;2023-07-20T03:22:17;6.63;;;4.45;;
16029;SDS011;34770;49.272;11.070;2023-07-20T03:24:43;8.70;;;4.82;;
16029;SDS011;34770;49.272;11.070;2023-07-20T03:27:08;5.38;;;4.35;;
16029;SDS011;34770;49.272;11.070;2023-07-20T03:29:34;5.10;;;4.10;;
16029;SDS011;34770;49.272;11.070;2023-07-20T03:31:59;8.40;;;5.32;;
16029;SDS011;34770;49.272;11.070;2023-07-20T03:34:25;5.93;;;4.15;;
16029;SDS011;34770;49.272;11.070;2023-07-20T03:36:50;7.32;;;4.85;;
16029;SDS011;34770;49.272;11.070;2023-07-20T03:39:15;6.65;;;4.50;;
16029;SDS011;34770;49.272;11.070;2023-07-20T03:41:41;6.75;;;4.78;;
16029;SDS011;34770;49.272;11.070;2023-07-20T03:44:08;7.32;;;4.25;;
16029;SDS011;34770;49.272;11.070;2023-07-20T03:46:33;6.93;;;4.25;;
16029;SDS011;34770;49.272;11.070;2023-07-20T03:48:59;8.18;;;5.25;;
16029;SDS011;34770;49.272;11.070;2023-07-20T03:51:24;7.38;;;4.53;;
16029;SDS011;34770;49.272;11.070;2023-07-20T03:53:51;5.63;;;4.15;;
16029;SDS011;34770;49.272;11.070;2023-07-20T03:56:16;5.72;;;4.03;;
16029;SDS011;34770;49.272;11.070;2023-07-20T03:58:41;7.45;;;4.40;;
16029;SDS011;34770;49.272;11.070;2023-07-20T04:01:07;5.60;;;4.80;;
16029;SDS011;34770;49.272;11.070;2023-07-20T04:03:33;5.70;;;4.28;;
16029;SDS011;34770;49.272;11.070;2023-07-20T04:05:58;10.80;;;4.70;;
16029;SDS011;34770;49.272;11.070;2023-07-20T04:08:24;7.25;;;4.88;;
16029;SDS011;34770;49.272;11.070;2023-07-20T04:10:49;8.82;;;4.50;;
16029;SDS011;34770;49.272;11.070;2023-07-20T04:13:15;10.82;;;5.65;;
16029;SDS011;34770;49.272;11.070;2023-07-20T04:15:41;5.70;;;4.45;;
16029;SDS011;34770;49.272;11.070;2023-07-20T04:18:07;8.07;;;5.30;;
16029;SDS011;34770;49.272;11.070;2023-07-20T04:20:32;7.38;;;5.00;;
16029;SDS011;34770;49.272;11.070;2023-07-20T04:22:58;6.97;;;5.30;;
16029;SDS011;34770;49.272;11.070;2023-07-20T04:25:23;9.55;;;5.07;;
16029;SDS011;34770;49.272;11.070;2023-07-20T04:27:49;7.93;;;5.15;;
16029;SDS011;34770;49.272;11.070;2023-07-20T04:30:16;8.50;;;5.50;;
16029;SDS011;34770;49.272;11.070;2023-07-20T04:32:45;5.82;;;4.88;;
16029;SDS011;34770;49.272;11.070;2023-07-20T04:35:10;6.32;;;5.00;;
16029;SDS011;34770;49.272;11.070;2023-07-20T04:37:36;8.48;;;5.13;;
16029;SDS011;34770;49.272;11.070;2023-07-20T04:40:02;8.93;;;5.20;;
16029;SDS011;34770;49.272;11.070;2023-07-20T04:42:28;6.85;;;5.22;;
16029;SDS011;34770;49.272;11.070;2023-07-20T04:44:53;5.97;;;4.82;;
16029;SDS011;34770;49.272;11.070;2023-07-20T04:47:19;8.35;;;5.32;;
16029;SDS011;34770;49.272;11.070;2023-07-20T04:49:44;7.90;;;5.53;;
16029;SDS011;34770;49.272;11.070;2023-07-20T04:52:09;5.55;;;4.95;;
16029;SDS011;34770;49.272;11.070;2023-07-20T04:54:35;10.18;;;6.03;;
16029;SDS011;34770;49.272;11.070;2023-07-20T04:57:00;6.80;;;5.28;;
16029;SDS011;34770;49.272;11.070;2023-07-20T04:59:26;9.65;;;4.97;;
16029;SDS011;34770;49.272;11.070;2023-07-20T05:01:51;7.40;;;5.18;;
16029;SDS011;34770;49.272;11.070;2023-07-20T05:04:17;7.72;;;5.30;;
16029;SDS011;34770;49.272;11.070;2023-07-20T05:06:42;7.57;;;4.93;;
16029;SDS011;34770;49.272;11.070;2023-07-20T05:09:08;7.70;;;4.13;;
16029;SDS011;34770;49.272;11.070;2023-07-20T05:11:34;7.03;;;4.80;;
16029;SDS011;34770;49.272;11.070;2023-07-20T05:13:59;9.68;;;4.75;;
16029;SDS011;34770;49.272;11.070;2023-07-20T05:16:25;5.38;;;4.82;;
16029;SDS011;34770;49.272;11.070;2023-07-20T05:18:50;4.97;;;4.55;;
16029;SDS011;34770;49.272;11.070;2023-07-20T05:21:16;7.28;;;4.30;;
16029;SDS011;34770;49.272;11.070;2023-07-20T05:23:41;6.97;;;4.65;;
16029;SDS011;34770;49.272;11.070;2023-07-20T05:26:07;8.82;;;4.57;;
16029;SDS011;34770;49.272;11.070;2023-07-20T05:28:34;11.73;;;4.70;;
16029;SDS011;34770;49.272;11.070;2023-07-20T05:30:59;6.93;;;4.88;;
16029;SDS011;34770;49.272;11.070;2023-07-20T05:33:28;6.93;;;4.38;;
16029;SDS011;34770;49.272;11.070;2023-07-20T05:35:53;5.47;;;4.68;;
16029;SDS011;34770;49.272;11.070;2023-07-20T05:38:18;6.72;;;4.30;;
16029;SDS011;34770;49.272;11.070;2023-07-20T05:40:44;8.68;;;4.35;;
16029;SDS011;34770;49.272;11.070;2023-07-20T05:43:10;4.13;;;3.72;;
16029;SDS011;34770;49.272;11.070;2023-07-20T05:45:36;6.30;;;4.47;;
16029;SDS011;34770;49.272;11.070;2023-07-20T05:48:01;7.25;;;4.13;;
16029;SDS011;34770;49.272;11.070;2023-07-20T05:50:26;8.63;;;4.30;;
16029;SDS011;34770;49.272;11.070;2023-07-20T05:52:53;6.93;;;3.60;;
16029;SDS011;34770;49.272;11.070;2023-07-20T05:55:19;6.22;;;3.20;;
16029;SDS011;34770;49.272;11.070;2023-07-20T05:57:44;11.98;;;3.60;;
16029;SDS011;34770;49.272;11.070;2023-07-20T06:00:09;4.50;;;3.90;;
16029;SDS011;34770;49.272;11.070;2023-07-20T06:02:37;4.72;;;4.28;;
16029;SDS011;34770;49.272;11.070;2023-07-20T06:05:02;6.90;;;3.72;;
16029;SDS011;34770;49.272;11.070;2023-07-20T06:07:28;12.00;;;3.90;;
16029;SDS011;34770;49.272;11.070;2023-07-20T06:09:53;6.43;;;3.35;;
16029;SDS011;34770;49.272;11.070;2023-07-20T06:12:19;8.82;;;3.50;;
16029;SDS011;34770;49.272;11.070;2023-07-20T06:14:44;5.25;;;3.35;;
16029;SDS011;34770;49.272;11.070;2023-07-20T06:17:09;3.70;;;3.28;;
16029;SDS011;34770;49.272;11.070;2023-07-20T06:19:35;4.03;;;3.33;;
16029;SDS011;34770;49.272;11.070;2023-07-20T06:22:00;5.60;;;3.25;;
16029;SDS011;34770;49.272;11.070;2023-07-20T06:24:26;6.03;;;3.28;;
16029;SDS011;34770;49.272;11.070;2023-07-20T06:26:51;4.35;;;3.53;;
16029;SDS011;34770;49.272;11.070;2023-07-20T06:29:17;6.22;;;3.65;;
16029;SDS011;34770;49.272;11.070;2023-07-20T06:31:42;10.07;;;3.60;;
16029;SDS011;34770;49.272;11.070;2023-07-20T06:34:08;6.25;;;3.85;;
16029;SDS011;34770;49.272;11.070;2023-07-20T06:36:33;6.88;;;2.97;;
16029;SDS011;34770;49.272;11.070;2023-07-20T06:38:58;8.93;;;3.47;;
16029;SDS011;34770;49.272;11.070;2023-07-20T06:41:24;7.97;;;4.30;;
16029;SDS011;34770;49.272;11.070;2023-07-20T06:43:49;4.90;;;3.13;;
16029;SDS011;34770;49.272;11.070;2023-07-20T06:46:15;5.65;;;3.10;;
16029;SDS011;34770;49.272;11.070;2023-07-20T06:48:40;6.82;;;3.08;;
16029;SDS011;34770;49.272;11.070;2023-07-20T06:51:05;5.43;;;3.65;;
16029;SDS011;34770;49.272;11.070;2023-07-20T06:53:31;3.70;;;3.03;;
16029;SDS011;34770;49.272;11.070;2023-07-20T06:55:56;4.10;;;2.63;;
16029;SDS011;34770;49.272;11.070;2023-07-20T06:58:25;6.53;;;3.28;;
16029;SDS011;34770;49.272;11.070;2023-07-20T07:00:51;3.25;;;2.95;;
16029;SDS011;34770;49.272;11.070;2023-07-20T07:03:16;6.65;;;2.85;;
16029;SDS011;34770;49.272;11.070;2023-07-20T07:05:42;4.45;;;2.85;;
16029;SDS011;34770;49.272;11.070;2023-07-20T07:08:09;3.28;;;2.38;;
16029;SDS011;34770;49.272;11.070;2023-07-20T07:10:35;5.45;;;2.30;;
16029;SDS011;34770;49.272;11.070;2023-07-20T07:13:01;5.47;;;2.28;;
16029;SDS011;34770;49.272;11.070;2023-07-20T07:15:27;5.85;;;2.63;;
16029;SDS011;34770;49.272;11.070;2023-07-20T07:17:52;4.80;;;2.60;;
16029;SDS011;34770;49.272;11.070;2023-07-20T07:20:18;3.53;;;2.88;;
16029;SDS011;34770;49.272;11.070;2023-07-20T07:22:44;6.70;;;2.60;;
16029;SDS011;34770;49.272;11.070;2023-07-20T07:25:10;4.07;;;2.55;;
16029;SDS011;34770;49.272;11.070;2023-07-20T07:27:35;3.72;;;2.20;;
16029;SDS011;34770;49.272;11.070;2023-07-20T07:30:01;4.65;;;2.40;;
16029;SDS011;34770;49.272;11.070;2023-07-20T07:32:27;5.38;;;2.78;;
16029;SDS011;34770;49.272;11.070;2023-07-20T07:34:53;3.42;;;2.58;;
16029;SDS011;34770;49.272;11.070;2023-07-20T07:37:18;5.07;;;2.63;;
16029;SDS011;34770;49.272;11.070;2023-07-20T07:39:44;6.55;;;2.53;;
16029;SDS011;34770;49.272;11.070;2023-07-20T07:42:11;8.90;;;2.78;;
16029;SDS011;34770;49.272;11.070;2023-07-20T07:44:36;7.25;;;2.47;;
16029;SDS011;34770;49.272;11.070;2023-07-20T07:47:02;4.78;;;2.40;;
16029;SDS011;34770;49.272;11.070;2023-07-20T07:49:27;7.25;;;3.05;;
16029;SDS011;34770;49.272;11.070;2023-07-20T07:51:52;3.30;;;2.50;;
16029;SDS011;34770;49.272;11.070;2023-07-20T07:54:18;7.32;;;2.72;;
16029;SDS011;34770;49.272;11.070;2023-07-20T07:56:43;4.75;;;2.05;;
16029;SDS011;34770;49.272;11.070;2023-07-20T07:59:09;5.15;;;3.08;;
16029;SDS011;34770;49.272;11.070;2023-07-20T08:01:35;2.72;;;2.10;;
16029;SDS011;34770;49.272;11.070;2023-07-20T08:04:00;2.80;;;2.25;;
16029;SDS011;34770;49.272;11.070;2023-07-20T08:06:25;6.32;;;2.40;;
16029;SDS011;34770;49.272;11.070;2023-07-20T08:08:51;3.55;;;2.60;;
16029;SDS011;34770;49.272;11.070;2023-07-20T08:11:16;2.85;;;2.55;;
16029;SDS011;34770;49.272;11.070;2023-07-20T08:13:43;4.75;;;2.45;;
16029;SDS011;34770;49.272;11.070;2023-07-20T08:16:08;4.65;;;2.10;;
16029;SDS011;34770;49.272;11.070;2023-07-20T08:18:34;4.18;;;2.65;;
16029;SDS011;34770;49.272;11.070;2023-07-20T08:20:59;2.75;;;2.17;;
16029;SDS011;34770;49.272;11.070;2023-07-20T08:23:25;1.90;;;1.73;;
16029;SDS011;34770;49.272;11.070;2023-07-20T08:25:52;7.97;;;2.63;;
16029;SDS011;34770;49.272;11.070;2023-07-20T08:28:17;4.50;;;2.00;;
16029;SDS011;34770;49.272;11.070;2023-07-20T08:30:46;4.00;;;2.13;;
16029;SDS011;34770;49.272;11.070;2023-07-20T08:33:13;4.93;;;2.25;;
16029;SDS011;34770;49.272;11.070;2023-07-20T08:35:39;5.05;;;1.85;;
16029;SDS011;34770;49.272;11.070;2023-07-20T08:38:05;5.13;;;2.15;;
16029;SDS011;34770;49.272;11.070;2023-07-20T08:40:49;3.22;;;1.80;;
16029;SDS011;34770;49.272;11.070;2023-07-20T08:43:15;4.38;;;2.08;;
16029;SDS011;34770;49.272;11.070;2023-07-20T08:45:44;2.92;;;1.77;;
16029;SDS011;34770;49.272;11.070;2023-07-20T08:48:10;3.33;;;2.15;;
16029;SDS011;34770;49.272;11.070;2023-07-20T08:50:37;6.03;;;1.95;;
16029;SDS011;34770;49.272;11.070;2023-07-20T08:53:03;4.70;;;1.70;;
16029;SDS011;34770;49.272;11.070;2023-07-20T08:55:29;3.35;;;1.98;;
16029;SDS011;34770;49.272;11.070;2023-07-20T08:57:55;2.70;;;2.03;;
16029;SDS011;34770;49.272;11.070;2023-07-20T09:00:22;3.13;;;1.67;;
16029;SDS011;34770;49.272;11.070;2023-07-20T09:02:50;3.63;;;1.88;;
16029;SDS011;34770;49.272;11.070;2023-07-20T09:05:17;4.35;;;1.85;;
16029;SDS011;34770;49.272;11.070;2023-07-20T09:07:43;4.32;;;1.83;;
16029;SDS011;34770;49.272;11.070;2023-07-20T09:10:08;5.00;;;2.05;;
16029;SDS011;34770;49.272;11.070;2023-07-20T09:12:35;3.33;;;1.70;;
16029;SDS011;34770;49.272;11.070;2023-07-20T09:15:03;4.05;;;1.83;;
16029;SDS011;34770;49.272;11.070;2023-07-20T09:17:29;5.22;;;1.67;;
16029;SDS011;34770;49.272;11.070;2023-07-20T09:19:55;3.63;;;1.85;;
16029;SDS011;34770;49.272;11.070;2023-07-20T09:22:20;3.97;;;1.75;;
16029;SDS011;34770;49.272;11.070;2023-07-20T09:24:45;4.63;;;2.08;;
16029;SDS011;34770;49.272;11.070;2023-07-20T09:27:11;2.88;;;1.90;;
16029;SDS011;34770;49.272;11.070;2023-07-20T09:29:50;3.00;;;1.67;;
16029;SDS011;34770;49.272;11.070;2023-07-20T09:32:19;2.28;;;1.67;;
16029;SDS011;34770;49.272;11.070;2023-07-20T09:34:46;3.75;;;1.77;;
16029;SDS011;34770;49.272;11.070;2023-07-20T09:37:12;2.15;;;1.42;;
16029;SDS011;34770;49.272;11.070;2023-07-20T09:39:44;7.10;;;3.33;;
16029;SDS011;34770;49.272;11.070;2023-07-20T09:42:11;4.43;;;1.95;;
16029;SDS011;34770;49.272;11.070;2023-07-20T09:44:38;1.80;;;1.60;;
16029;SDS011;34770;49.272;11.070;2023-07-20T09:47:04;4.63;;;1.65;;
16029;SDS011;34770;49.272;11.070;2023-07-20T09:49:29;3.42;;;1.95;;
16029;SDS011;34770;49.272;11.070;2023-07-20T09:51:55;3.22;;;1.50;;
16029;SDS011;34770;49.272;11.070;2023-07-20T09:54:23;7.50;;;1.65;;
16029;SDS011;34770;49.272;11.070;2023-07-20T09:56:50;1.88;;;1.30;;
16029;SDS011;34770;49.272;11.070;2023-07-20T09:59:17;4.05;;;1.63;;
16029;SDS011;34770;49.272;11.070;2023-07-20T10:01:42;4.20;;;1.45;;
16029;SDS011;34770;49.272;11.070;2023-07-20T10:04:10;2.55;;;1.88;;
16029;SDS011;34770;49.272;11.070;2023-07-20T10:06:37;1.50;;;1.40;;
16029;SDS011;34770;49.272;11.070;2023-07-20T10:09:07;7.95;;;1.50;;
16029;SDS011;34770;49.272;11.070;2023-07-20T10:11:35;2.13;;;1.60;;
16029;SDS011;34770;49.272;11.070;2023-07-20T10:14:04;1.65;;;1.42;;
16029;SDS011;34770;49.272;11.070;2023-07-20T10:16:36;1.30;;;1.20;;
16029;SDS011;34770;49.272;11.070;2023-07-20T10:19:07;1.77;;;1.17;;
16029;SDS011;34770;49.272;11.070;2023-07-20T10:21:40;2.95;;;1.45;;
16029;SDS011;34770;49.272;11.070;2023-07-20T10:24:07;3.17;;;1.63;;
16029;SDS011;34770;49.272;11.070;2023-07-20T10:26:34;1.90;;;1.60;;
16029;SDS011;34770;49.272;11.070;2023-07-20T10:29:01;1.92;;;1.33;;
16029;SDS011;34770;49.272;11.070;2023-07-20T10:31:26;2.47;;;1.23;;
16029;SDS011;34770;49.272;11.070;2023-07-20T10:33:53;2.88;;;1.33;;
16029;SDS011;34770;49.272;11.070;2023-07-20T10:36:25;1.88;;;1.20;;
16029;SDS011;34770;49.272;11.070;2023-07-20T10:38:53;3.50;;;1.70;;
16029;SDS011;34770;49.272;11.070;2023-07-20T10:41:21;2.85;;;1.23;;
16029;SDS011;34770;49.272;11.070;2023-07-20T10:44:02;1.50;;;1.20;;
16029;SDS011;34770;49.272;11.070;2023-07-20T10:46:50;1.77;;;1.10;;
16029;SDS011;34770;49.272;11.070;2023-07-20T10:49:15;2.38;;;1.58;;
16029;SDS011;34770;49.272;11.070;2023-07-20T10:51:47;1.33;;;1.20;;
16029;SDS011;34770;49.272;11.070;2023-07-20T10:56:49;3.83;;;1.50;;
16029;SDS011;34770;49.272;11.070;2023-07-20T10:59:19;1.25;;;1.13;;
16029;SDS011;34770;49.272;11.070;2023-07-20T11:01:46;3.22;;;1.88;;
16029;SDS011;34770;49.272;11.070;2023-07-20T11:04:14;7.47;;;1.20;;
16029;SDS011;34770;49.272;11.070;2023-07-20T11:06:44;1.40;;;1.30;;
16029;SDS011;34770;49.272;11.070;2023-07-20T11:09:11;2.25;;;1.10;;
16029;SDS011;34770;49.272;11.070;2023-07-20T11:11:42;1.13;;;0.95;;
16029;SDS011;34770;49.272;11.070;2023-07-20T11:14:09;1.00;;;0.93;;
16029;SDS011;34770;49.272;11.070;2023-07-20T11:16:59;2.42;;;1.30;;
16029;SDS011;34770;49.272;11.070;2023-07-20T11:19:37;1.25;;;1.00;;
16029;SDS011;34770;49.272;11.070;2023-07-20T11:22:05;2.33;;;1.17;;
16029;SDS011;34770;49.272;11.070;2023-07-20T11:24:34;1.98;;;1.33;;
16029;SDS011;34770;49.272;11.070;2023-07-20T11:27:00;1.48;;;1.35;;
16029;SDS011;34770;49.272;11.070;2023-07-20T11:29:29;2.15;;;1.27;;
16029;SDS011;34770;49.272;11.070;2023-07-20T11:31:54;1.20;;;1.00;;
16029;SDS011;34770;49.272;11.070;2023-07-20T11:34:21;1.92;;;1.38;;
16029;SDS011;34770;49.272;11.070;2023-07-20T11:36:47;1.83;;;1.30;;
16029;SDS011;34770;49.272;11.070;2023-07-20T11:39:15;2.03;;;1.30;;
16029;SDS011;34770;49.272;11.070;2023-07-20T11:41:48;1.80;;;1.10;;
16029;SDS011;34770;49.272;11.070;2023-07-20T11:44:17;2.20;;;1.52;;
16029;SDS011;34770;49.272;11.070;2023-07-20T11:46:43;2.63;;;0.93;;
16029;SDS011;34770;49.272;11.070;2023-07-20T11:49:09;3.22;;;1.33;;
16029;SDS011;34770;49.272;11.070;2023-07-20T11:51:36;2.85;;;1.30;;
16029;SDS011;34770;49.272;11.070;2023-07-20T11:54:04;2.97;;;1.38;;
16029;SDS011;34770;49.272;11.070;2023-07-20T11:56:31;1.13;;;1.02;;
16029;SDS011;34770;49.272;11.070;2023-07-20T11:58:59;1.63;;;1.50;;
16029;SDS011;34770;49.272;11.070;2023-07-20T12:01:26;1.70;;;1.15;;
16029;SDS011;34770;49.272;11.070;2023-07-20T12:04:00;1.52;;;1.15;;
16029;SDS011;34770;49.272;11.070;2023-07-20T12:06:29;3.88;;;1.20;;
16029;SDS011;34770;49.272;11.070;2023-07-20T12:08:55;2.15;;;1.08;;
16029;SDS011;34770;49.272;11.070;2023-07-20T12:14:03;2.15;;;1.10;;
16029;SDS011;34770;49.272;11.070;2023-07-20T12:16:32;2.17;;;1.30;;
16029;SDS011;34770;49.272;11.070;2023-07-20T12:19:05;1.20;;;1.10;;
16029;SDS011;34770;49.272;11.070;2023-07-20T12:21:32;2.33;;;1.45;;
16029;SDS011;34770;49.272;11.070;2023-07-20T12:24:00;2.15;;;1.30;;
16029;SDS011;34770;49.272;11.070;2023-07-20T12:26:25;1.65;;;1.08;;
16029;SDS011;34770;49.272;11.070;2023-07-20T12:28:56;1.30;;;1.10;;
16029;SDS011;34770;49.272;11.070;2023-07-20T12:31:22;2.25;;;1.10;;
16029;SDS011;34770;49.272;11.070;2023-07-20T12:33:49;1.50;;;1.23;;
16029;SDS011;34770;49.272;11.070;2023-07-20T12:36:15;1.58;;;0.82;;
16029;SDS011;34770;49.272;11.070;2023-07-20T12:38:41;1.67;;;1.00;;
16029;SDS011;34770;49.272;11.070;2023-07-20T12:41:07;1.05;;;1.02;;
16029;SDS011;34770;49.272;11.070;2023-07-20T12:43:32;2.70;;;1.25;;
16029;SDS011;34770;49.272;11.070;2023-07-20T12:45:58;1.42;;;1.30;;
16029;SDS011;34770;49.272;11.070;2023-07-20T12:48:24;1.75;;;0.90;;
16029;SDS011;34770;49.272;11.070;2023-07-20T12:50:49;1.58;;;1.20;;
16029;SDS011;34770;49.272;11.070;2023-07-20T12:53:15;5.20;;;1.20;;
16029;SDS011;34770;49.272;11.070;2023-07-20T12:55:41;1.95;;;1.23;;
16029;SDS011;34770;49.272;11.070;2023-07-20T12:58:06;3.00;;;1.20;;
16029;SDS011;34770;49.272;11.070;2023-07-20T13:00:32;1.92;;;1.35;;
16029;SDS011;34770;49.272;11.070;2023-07-20T13:02:58;1.48;;;1.10;;
16029;SDS011;34770;49.272;11.070;2023-07-20T13:05:23;3.72;;;1.10;;
16029;SDS011;34770;49.272;11.070;2023-07-20T13:07:49;1.70;;;1.13;;
16029;SDS011;34770;49.272;11.070;2023-07-20T13:10:14;2.88;;;1.40;;
16029;SDS011;34770;49.272;11.070;2023-07-20T13:12:40;6.30;;;1.50;;
16029;SDS011;34770;49.272;11.070;2023-07-20T13:15:06;1.95;;;1.35;;
16029;SDS011;34770;49.272;11.070;2023-07-20T13:17:33;2.85;;;1.25;;
16029;SDS011;34770;49.272;11.070;2023-07-20T13:19:59;1.45;;;0.93;;
16029;SDS011;34770;49.272;11.070;2023-07-20T13:22:24;1.63;;;1.10;;
16029;SDS011;34770;49.272;11.070;2023-07-20T13:24:50;1.15;;;1.05;;
16029;SDS011;34770;49.272;11.070;2023-07-20T13:27:18;4.80;;;1.40;;
16029;SDS011;34770;49.272;11.070;2023-07-20T13:29:44;1.73;;;0.90;;
16029;SDS011;34770;49.272;11.070;2023-07-20T13:32:12;2.25;;;1.23;;
16029;SDS011;34770;49.272;11.070;2023-07-20T13:34:43;1.88;;;1.13;;
16029;SDS011;34770;49.272;11.070;2023-07-20T13:37:08;1.30;;;1.20;;
16029;SDS011;34770;49.272;11.070;2023-07-20T13:39:34;1.70;;;1.20;;
16029;SDS011;34770;49.272;11.070;2023-07-20T13:41:59;1.00;;;0.90;;
16029;SDS011;34770;49.272;11.070;2023-07-20T13:44:27;1.52;;;1.25;;
16029;SDS011;34770;49.272;11.070;2023-07-20T13:46:53;1.67;;;1.10;;
16029;SDS011;34770;49.272;11.070;2023-07-20T13:49:18;3.28;;;1.65;;
16029;SDS011;34770;49.272;11.070;2023-07-20T13:51:43;3.72;;;1.20;;
16029;SDS011;34770;49.272;11.070;2023-07-20T13:54:09;1.42;;;1.10;;
16029;SDS011;34770;49.272;11.070;2023-07-20T13:56:36;1.45;;;1.10;;
16029;SDS011;34770;49.272;11.070;2023-07-20T13:59:05;1.17;;;0.98;;
16029;SDS011;34770;49.272;11.070;2023-07-20T14:01:31;1.38;;;0.98;;
16029;SDS011;34770;49.272;11.070;2023-07-20T14:03:58;1.58;;;1.10;;
16029;SDS011;34770;49.272;11.070;2023-07-20T14:06:24;3.67;;;1.13;;
16029;SDS011;34770;49.272;11.070;2023-07-20T14:08:49;1.75;;;1.00;;
16029;SDS011;34770;49.272;11.070;2023-07-20T14:11:15;3.03;;;1.17;;
16029;SDS011;34770;49.272;11.070;2023-07-20T14:13:41;2.67;;;0.98;;
16029;SDS011;34770;49.272;11.070;2023-07-20T14:16:06;1.63;;;1.30;;
16029;SDS011;34770;49.272;11.070;2023-07-20T14:18:33;1.77;;;1.30;;
16029;SDS011;34770;49.272;11.070;2023-07-20T14:20:58;1.92;;;1.17;;
16029;SDS011;34770;49.272;11.070;2023-07-20T14:23:24;2.42;;;1.50;;
16029;SDS011;34770;49.272;11.070;2023-07-20T14:25:49;1.60;;;1.27;;
16029;SDS011;34770;49.272;11.070;2023-07-20T14:28:14;1.38;;;1.20;;
16029;SDS011;34770;49.272;11.070;2023-07-20T14:30:41;1.38;;;1.08;;
16029;SDS011;34770;49.272;11.070;2023-07-20T14:33:06;1.27;;;1.17;;
16029;SDS011;34770;49.272;11.070;2023-07-20T14:35:31;1.45;;;1.13;;
16029;SDS011;34770;49.272;11.070;2023-07-20T14:37:57;1.58;;;1.00;;
16029;SDS011;34770;49.272;11.070;2023-07-20T14:40:23;1.98;;;1.30;;
16029;SDS011;34770;49.272;11.070;2023-07-20T14:42:48;1.42;;;0.88;;
16029;SDS011;34770;49.272;11.070;2023-07-20T14:45:14;2.70;;;1.20;;